Time;durP1;ratioP1;P1;durP2;ratioP2;P2;SDS_P1;SDS_P2;PMS_P1;PMS_P2;Temp;Humidity;BMP_temperature;BMP_pressure;BME280_temperature;BME280_humidity;BME280_pressure;Samples;Min_cycle;Max_cycle;Signal;HPM_P1;HPM_P2
2022/11/23 00:00:28;;;;;;;56.60;54.40;;;6.30;94.30;;;;;;5033605;28;20022;-79
2022/11/23 00:02:54;;;;;;;;;;;6.30;94.40;;;;;;5032347;28;20116;-79
2022/11/23 00:05:20;;;;;;;55.20;53.10;;;6.40;94.40;;;;;;5032055;28;20002;-79
2022/11/23 00:07:45;;;;;;;53.15;51.15;;;6.40;94.40;;;;;;5065319;28;20450;-79
2022/11/23 00:10:11;;;;;;;55.20;53.10;;;6.40;94.40;;;;;;5033223;28;20395;-79
2022/11/23 00:12:37;;;;;;;52.83;50.83;;;6.50;94.40;;;;;;5033282;28;20025;-77
2022/11/23 00:15:04;;;;;;;53.88;51.88;;;6.60;94.40;;;;;;5048319;28;20133;-76
2022/11/23 00:17:29;;;;;;;52.90;50.90;;;6.60;94.40;;;;;;5032215;28;20049;-77
2022/11/23 00:19:55;;;;;;;45.78;44.08;;;6.70;94.40;;;;;;5048402;28;20506;-77
2022/11/23 00:22:21;;;;;;;43.85;42.25;;;6.70;94.40;;;;;;5048654;28;20061;-76
2022/11/23 00:24:47;;;;;;;46.08;44.38;;;6.80;94.40;;;;;;5048246;28;20075;-77
2022/11/23 00:27:12;;;;;;;36.03;34.67;;;6.90;94.50;;;;;;5064899;28;20053;-77
2022/11/23 00:29:38;;;;;;;28.67;27.58;;;7.00;94.50;;;;;;5031968;28;20026;-77
2022/11/23 00:32:04;;;;;;;29.52;28.42;;;7.00;94.50;;;;;;5048081;28;20474;-77
2022/11/23 00:34:30;;;;;;;29.80;28.70;;;7.10;94.50;;;;;;5031452;28;20104;-75
2022/11/23 00:36:56;;;;;;;26.88;25.88;;;7.20;94.50;;;;;;5047878;28;20555;-75
2022/11/23 00:39:21;;;;;;;20.77;19.98;;;7.30;94.50;;;;;;5031424;28;20038;-75
2022/11/23 00:41:47;;;;;;;19.63;18.83;;;7.40;94.50;;;;;;5032863;28;20493;-75
2022/11/23 00:44:13;;;;;;;20.67;19.88;;;7.40;94.50;;;;;;5031344;28;20079;-75
2022/11/23 00:46:38;;;;;;;16.90;16.20;;;7.50;94.50;;;;;;5047993;28;20037;-75
2022/11/23 00:49:05;;;;;;;16.92;16.23;;;7.60;94.50;;;;;;5031352;28;20478;-75
2022/11/23 00:51:34;;;;;;;20.65;19.85;;;7.60;94.50;;;;;;5064479;28;20037;-75
2022/11/23 00:54:01;;;;;;;23.58;22.67;;;7.70;94.50;;;;;;5064221;28;20056;-74
2022/11/23 00:56:28;;;;;;;19.58;18.77;;;7.70;94.50;;;;;;5047878;28;20044;-75
2022/11/23 00:58:55;;;;;;;19.92;19.13;;;7.70;94.50;;;;;;5064468;28;20090;-75
2022/11/23 01:01:23;;;;;;;16.15;15.45;;;7.70;94.50;;;;;;5064230;28;20053;-74
2022/11/23 01:03:54;;;;;;;15.95;15.25;;;7.80;94.60;;;;;;5063931;28;20075;-75
2022/11/23 01:06:22;;;;;;;10.70;10.20;;;7.80;94.60;;;;;;5063875;28;20069;-75
2022/11/23 01:08:50;;;;;;;11.60;11.10;;;7.90;94.70;;;;;;5063973;28;20033;-75
2022/11/23 01:11:16;;;;;;;8.02;7.63;;;8.00;94.70;;;;;;5063887;28;20025;-75
2022/11/23 01:13:42;;;;;;;9.18;8.77;;;8.10;94.70;;;;;;5031945;28;20063;-75
2022/11/23 01:16:23;;;;;;;14.00;13.40;;;8.20;94.70;;;;;;5031648;28;20374;-75
2022/11/23 01:18:56;;;;;;;10.75;10.25;;;8.30;94.70;;;;;;5032475;28;20071;-75
2022/11/23 01:21:23;;;;;;;11.15;10.65;;;8.40;94.60;;;;;;5064186;28;20033;-75
2022/11/23 01:23:49;;;;;;;10.23;9.73;;;8.40;94.60;;;;;;5030492;28;20551;-75
2022/11/23 01:26:15;;;;;;;10.63;10.13;;;8.50;94.70;;;;;;5030597;28;20034;-75
2022/11/23 01:28:41;;;;;;;10.63;10.13;;;8.60;94.70;;;;;;5063671;28;20516;-75
2022/11/23 01:31:29;;;;;;;11.85;11.35;;;8.60;94.70;;;;;;5046979;28;20055;-75
2022/11/23 01:33:55;;;;;;;;;;;8.70;94.70;;;;;;5030554;28;20033;-77
2022/11/23 01:36:24;;;;;;;19.98;19.17;;;8.70;94.80;;;;;;5030228;28;19908;-78
2022/11/23 01:38:49;;;;;;;40.08;38.58;;;8.60;94.50;;;;;;5063752;28;20021;-78
2022/11/23 01:41:24;;;;;;;39.80;38.30;;;8.60;94.50;;;;;;5063672;28;20033;-77
2022/11/23 01:43:50;;;;;;;43.25;41.65;;;8.50;94.50;;;;;;5031572;28;20022;-77
2022/11/23 01:46:17;;;;;;;55.42;53.35;;;8.40;94.50;;;;;;5030935;28;20032;-77
2022/11/23 01:48:42;;;;;;;;;;;8.40;94.60;;;;;;5030899;28;20033;-77
2022/11/23 01:51:14;;;;;;;101.38;97.35;;;8.30;94.60;;;;;;5031653;28;19912;-77
2022/11/23 01:53:41;;;;;;;114.07;109.47;;;8.30;94.60;;;;;;5031950;28;20053;-76
2022/11/23 01:56:09;;;;;;;117.80;113.00;;;8.20;94.60;;;;;;5063184;28;20068;-77
2022/11/23 01:58:40;;;;;;;115.13;110.43;;;8.20;94.70;;;;;;5031422;28;20033;-76
2022/11/23 02:01:07;;;;;;;122.55;117.55;;;8.20;94.70;;;;;;5031346;28;20126;-77
2022/11/23 02:03:36;;;;;;;124.20;119.10;;;8.20;94.80;;;;;;5063310;28;20477;-77
2022/11/23 02:06:06;;;;;;;122.10;117.05;;;8.20;94.80;;;;;;5030102;28;20056;-77
2022/11/23 02:08:33;;;;;;;124.35;119.22;;;8.20;94.80;;;;;;5031267;28;20071;-77
2022/11/23 02:10:59;;;;;;;123.93;118.82;;;8.20;94.80;;;;;;5030022;28;20026;-77
2022/11/23 02:13:26;;;;;;;;;;;8.20;94.80;;;;;;5030390;28;20516;-76
2022/11/23 02:15:53;;;;;;;130.93;125.50;;;8.20;94.80;;;;;;5030809;28;19924;-72
2022/11/23 02:18:22;;;;;;;131.27;125.82;;;8.20;94.80;;;;;;5029813;28;20029;-77
2022/11/23 02:20:49;;;;;;;131.10;125.60;;;8.20;94.90;;;;;;5063137;28;20113;-77
2022/11/23 02:23:17;;;;;;;135.32;129.60;;;8.30;94.90;;;;;;5031142;28;20147;-77
2022/11/23 02:25:43;;;;;;;133.93;128.27;;;8.30;95.00;;;;;;5031075;28;20033;-77
2022/11/23 02:28:23;;;;;;;140.32;134.43;;;8.40;95.00;;;;;;5062931;28;20029;-77
2022/11/23 02:30:52;;;;;;;136.57;130.82;;;8.40;95.00;;;;;;5063036;28;20520;-77
2022/11/23 02:33:17;;;;;;;136.43;130.70;;;8.50;95.00;;;;;;5030964;28;20329;-77
2022/11/23 02:35:53;;;;;;;135.00;129.35;;;8.50;95.00;;;;;;5031193;28;20504;-77
2022/11/23 02:38:21;;;;;;;127.47;122.20;;;8.60;95.00;;;;;;5030891;28;20037;-77
2022/11/23 02:40:47;;;;;;;122.32;117.22;;;8.70;95.00;;;;;;5030836;28;20443;-77
2022/11/23 02:43:13;;;;;;;123.07;117.93;;;8.80;95.10;;;;;;5046253;28;20037;-77
2022/11/23 02:46:01;;;;;;;118.97;114.07;;;8.90;95.10;;;;;;5046104;28;20409;-77
2022/11/23 02:48:27;;;;;;;125.88;120.68;;;9.00;95.10;;;;;;5062926;28;20501;-77
2022/11/23 02:50:52;;;;;;;116.47;111.70;;;9.10;95.10;;;;;;5030737;28;20034;-77
2022/11/23 02:53:18;;;;;;;126.40;121.20;;;9.20;95.10;;;;;;5029420;28;20398;-71
2022/11/23 02:55:44;;;;;;;129.80;124.38;;;9.20;95.00;;;;;;5030649;28;20105;-77
2022/11/23 02:58:10;;;;;;;126.70;121.38;;;9.30;95.00;;;;;;5032833;28;20076;-77
2022/11/23 03:00:36;;;;;;;128.95;123.60;;;9.30;95.00;;;;;;5033427;28;20033;-77
2022/11/23 03:03:02;;;;;;;128.15;122.78;;;9.40;95.00;;;;;;5033344;28;20474;-76
2022/11/23 03:05:29;;;;;;;133.07;127.50;;;9.40;95.00;;;;;;5049617;28;20064;-77
2022/11/23 03:07:54;;;;;;;;;;;9.40;95.00;;;;;;5066831;28;20030;-77
2022/11/23 03:10:20;;;;;;;143.40;137.40;;;9.50;95.00;;;;;;5066420;28;20012;-77
2022/11/23 03:12:46;;;;;;;140.15;134.35;;;9.50;94.90;;;;;;5034437;28;20044;-77
2022/11/23 03:15:12;;;;;;;142.95;137.05;;;9.50;94.80;;;;;;5034045;28;20445;-77
2022/11/23 03:17:38;;;;;;;148.75;142.60;;;9.40;94.80;;;;;;5034311;28;20087;-77
2022/11/23 03:20:04;;;;;;;153.63;147.27;;;9.40;94.80;;;;;;5034200;28;20033;-77
2022/11/23 03:22:29;;;;;;;156.60;150.05;;;9.30;94.80;;;;;;5033017;28;20045;-78
2022/11/23 03:24:56;;;;;;;157.57;150.88;;;9.20;94.80;;;;;;5065991;28;20064;-77
2022/11/23 03:27:22;;;;;;;153.27;146.73;;;9.20;94.90;;;;;;5032856;28;20394;-77
2022/11/23 03:29:48;;;;;;;152.60;146.02;;;9.10;94.90;;;;;;5066434;28;20036;-78
2022/11/23 03:32:14;;;;;;;153.50;146.80;;;9.10;94.90;;;;;;5034068;28;20033;-77
2022/11/23 03:34:39;;;;;;;152.55;145.90;;;9.00;94.90;;;;;;5032754;28;20029;-77
2022/11/23 03:37:05;;;;;;;155.07;148.32;;;9.00;95.00;;;;;;5033954;28;20121;-77
2022/11/23 03:39:31;;;;;;;161.80;154.70;;;9.00;95.10;;;;;;5033929;28;20097;-77
2022/11/23 03:41:57;;;;;;;156.27;149.38;;;9.10;95.30;;;;;;5065834;28;20034;-77
2022/11/23 03:44:23;;;;;;;159.00;152.00;;;9.20;95.30;;;;;;5033712;28;20401;-77
2022/11/23 03:46:49;;;;;;;162.73;155.60;;;9.40;95.30;;;;;;5065718;28;20124;-77
2022/11/23 03:49:15;;;;;;;;;;;9.50;95.30;;;;;;5032977;28;20029;-77
2022/11/23 03:51:41;;;;;;;163.23;156.18;;;9.60;95.20;;;;;;5033623;28;20262;-77
2022/11/23 03:54:07;;;;;;;163.40;156.35;;;9.70;95.20;;;;;;5033505;28;20041;-76
2022/11/23 03:56:32;;;;;;;162.40;155.35;;;9.80;95.10;;;;;;5033381;28;20125;-77
2022/11/23 03:58:58;;;;;;;161.30;154.30;;;9.80;95.00;;;;;;5032380;28;20040;-69
2022/11/23 04:01:24;;;;;;;158.70;151.85;;;9.80;95.00;;;;;;5033612;28;20039;-76
2022/11/23 04:03:50;;;;;;;158.35;151.45;;;9.80;95.00;;;;;;5032196;28;20036;-76
2022/11/23 04:06:16;;;;;;;158.32;151.43;;;9.80;95.00;;;;;;5032048;28;20410;-76
2022/11/23 04:08:41;;;;;;;164.02;156.98;;;9.70;95.00;;;;;;5031936;28;20033;-77
2022/11/23 04:11:07;;;;;;;153.02;146.32;;;9.70;95.00;;;;;;5065518;28;20132;-77
2022/11/23 04:13:33;;;;;;;151.55;144.90;;;9.70;95.00;;;;;;5031883;28;20116;-77
2022/11/23 04:15:58;;;;;;;158.43;151.60;;;9.60;95.00;;;;;;5031589;28;20497;-78
2022/11/23 04:18:24;;;;;;;155.60;148.88;;;9.60;95.10;;;;;;5031723;28;20529;-77
2022/11/23 04:20:50;;;;;;;158.20;151.40;;;9.50;94.90;;;;;;5033121;28;20117;-77
2022/11/23 04:23:15;;;;;;;150.30;143.77;;;9.40;94.90;;;;;;5064977;28;20527;-77
2022/11/23 04:25:41;;;;;;;151.68;145.07;;;9.30;94.90;;;;;;5032954;28;20037;-78
2022/11/23 04:28:07;;;;;;;153.93;147.27;;;9.20;94.90;;;;;;5031641;28;20034;-77
2022/11/23 04:30:33;;;;;;;151.98;145.38;;;9.20;95.00;;;;;;5032901;28;20025;-78
2022/11/23 04:32:59;;;;;;;154.18;147.50;;;9.10;94.90;;;;;;5031624;28;20501;-77
2022/11/23 04:35:25;;;;;;;154.70;148.10;;;9.10;95.00;;;;;;5032727;28;20498;-78
2022/11/23 04:37:50;;;;;;;156.00;149.30;;;9.00;95.00;;;;;;5031596;28;20029;-78
2022/11/23 04:40:16;;;;;;;155.95;149.25;;;9.00;95.00;;;;;;5064690;28;20470;-77
2022/11/23 04:42:42;;;;;;;155.48;148.77;;;9.00;95.10;;;;;;5031457;28;20033;-77
2022/11/23 04:45:08;;;;;;;154.73;148.13;;;9.00;95.10;;;;;;5032481;28;20033;-77
2022/11/23 04:47:33;;;;;;;156.05;149.38;;;8.90;95.10;;;;;;5031279;28;20163;-77
2022/11/23 04:49:59;;;;;;;153.82;147.23;;;8.90;95.30;;;;;;5031218;28;20537;-77
2022/11/23 04:52:25;;;;;;;151.32;144.82;;;8.90;95.10;;;;;;5064412;28;20049;-77
2022/11/23 04:54:50;;;;;;;157.02;150.35;;;8.90;95.10;;;;;;5032371;28;20029;-77
2022/11/23 04:57:16;;;;;;;156.07;149.50;;;8.90;95.10;;;;;;5031044;28;20072;-77
2022/11/23 04:59:42;;;;;;;148.48;142.18;;;8.90;95.10;;;;;;5032255;28;20025;-77
2022/11/23 05:02:09;;;;;;;148.75;142.48;;;8.90;95.10;;;;;;5032109;28;20040;-77
2022/11/23 05:04:34;;;;;;;;;;;8.90;95.10;;;;;;5064566;28;20092;-77
2022/11/23 05:07:00;;;;;;;143.95;137.88;;;8.90;95.10;;;;;;5047349;28;19913;-77
2022/11/23 05:09:26;;;;;;;141.65;135.70;;;8.90;95.00;;;;;;5030969;28;20033;-77
2022/11/23 05:11:51;;;;;;;140.20;134.30;;;8.80;95.00;;;;;;5064015;28;20437;-77
2022/11/23 05:14:17;;;;;;;140.70;134.80;;;8.80;95.00;;;;;;5047309;28;20116;-77
2022/11/23 05:16:43;;;;;;;139.73;133.85;;;8.80;95.00;;;;;;5031798;28;20045;-78
2022/11/23 05:19:09;;;;;;;135.77;130.07;;;8.80;95.00;;;;;;5030697;28;20034;-77
2022/11/23 05:21:34;;;;;;;138.93;133.02;;;8.80;95.00;;;;;;5046592;28;20375;-77
2022/11/23 05:24:00;;;;;;;139.77;133.88;;;8.80;95.00;;;;;;5030464;28;20033;-77
2022/11/23 05:26:26;;;;;;;136.02;130.30;;;8.80;95.00;;;;;;5030899;28;20060;-78
2022/11/23 05:28:51;;;;;;;137.95;132.13;;;8.80;95.10;;;;;;5063703;28;20041;-77
2022/11/23 05:31:18;;;;;;;129.25;123.80;;;8.80;95.10;;;;;;5030525;28;20095;-78
2022/11/23 05:33:44;;;;;;;126.40;121.10;;;8.80;95.10;;;;;;5030616;28;20464;-77
2022/11/23 05:36:12;;;;;;;128.07;122.78;;;8.80;95.10;;;;;;5046930;28;20048;-77
2022/11/23 05:38:39;;;;;;;118.93;114.03;;;8.80;95.10;;;;;;5031672;28;20063;-82
2022/11/23 05:41:05;;;;;;;117.18;112.38;;;8.80;95.10;;;;;;5033282;28;20025;-83
2022/11/23 05:43:31;;;;;;;109.75;105.32;;;8.80;95.10;;;;;;5031236;28;20329;-82
2022/11/23 05:46:00;;;;;;;114.90;110.22;;;8.80;95.10;;;;;;5032256;28;20044;-82
2022/11/23 05:48:26;;;;;;;116.35;111.63;;;8.80;95.10;;;;;;5064577;28;20539;-82
2022/11/23 05:50:52;;;;;;;122.47;117.57;;;8.80;95.10;;;;;;5048308;28;20119;-76
2022/11/23 05:53:18;;;;;;;119.00;114.20;;;8.80;95.10;;;;;;5046849;28;20065;-81
2022/11/23 05:55:44;;;;;;;122.78;117.78;;;8.80;95.10;;;;;;5030362;28;20500;-80
2022/11/23 05:58:10;;;;;;;124.32;119.30;;;8.80;95.10;;;;;;5029905;28;20022;-76
2022/11/23 06:00:36;;;;;;;120.28;115.38;;;8.80;95.00;;;;;;5046375;28;20061;-76
2022/11/23 06:03:02;;;;;;;118.35;113.55;;;8.80;95.00;;;;;;5063252;28;20034;-75
2022/11/23 06:05:28;;;;;;;;;;;8.80;95.00;;;;;;5063606;28;20032;-75
2022/11/23 06:07:54;;;;;;;112.57;108.07;;;8.80;95.00;;;;;;5063409;28;19905;-75
2022/11/23 06:10:20;;;;;;;110.47;106.07;;;8.80;95.00;;;;;;5031143;28;20083;-76
2022/11/23 06:12:46;;;;;;;117.82;113.13;;;8.70;94.90;;;;;;5029784;28;20057;-76
2022/11/23 06:15:12;;;;;;;106.63;102.32;;;8.60;94.90;;;;;;5062608;28;20053;-76
2022/11/23 06:17:37;;;;;;;106.50;102.25;;;8.60;94.90;;;;;;5029856;28;20033;-76
2022/11/23 06:20:07;;;;;;;106.03;101.82;;;8.50;94.90;;;;;;5030083;28;20037;-76
2022/11/23 06:22:33;;;;;;;107.95;103.65;;;8.50;94.90;;;;;;5063063;28;20087;-76
2022/11/23 06:24:59;;;;;;;109.18;104.82;;;8.40;94.90;;;;;;5046517;28;20366;-80
2022/11/23 06:27:25;;;;;;;113.80;109.28;;;8.30;94.90;;;;;;5064159;28;20033;-81
2022/11/23 06:29:51;;;;;;;114.15;109.60;;;8.20;94.90;;;;;;5064117;28;20071;-78
2022/11/23 06:32:17;;;;;;;116.28;111.57;;;8.20;94.90;;;;;;5033276;28;20030;-78
2022/11/23 06:34:42;;;;;;;118.40;113.70;;;8.00;94.90;;;;;;5052683;28;20099;-78
2022/11/23 06:37:08;;;;;;;116.68;111.97;;;8.00;94.90;;;;;;5033760;28;20037;-78
2022/11/23 06:39:34;;;;;;;113.00;108.40;;;7.90;95.00;;;;;;5050449;28;20029;-77
2022/11/23 06:42:00;;;;;;;118.18;113.40;;;7.90;95.00;;;;;;5050203;28;20086;-79
2022/11/23 06:44:26;;;;;;;116.85;112.07;;;7.80;95.00;;;;;;5033497;28;20036;-79
2022/11/23 06:46:51;;;;;;;111.85;107.35;;;7.80;95.00;;;;;;5050219;28;20030;-79
2022/11/23 06:49:19;;;;;;;115.63;110.95;;;7.70;95.00;;;;;;5034700;28;20045;-80
2022/11/23 06:51:45;;;;;;;119.75;114.95;;;7.70;95.10;;;;;;5050518;28;20520;-80
2022/11/23 06:54:11;;;;;;;113.60;109.03;;;7.70;95.00;;;;;;5050138;28;20033;-81
2022/11/23 06:56:37;;;;;;;112.03;107.50;;;7.60;95.00;;;;;;5033876;28;20064;-80
2022/11/23 06:59:03;;;;;;;115.43;110.72;;;7.60;95.00;;;;;;5050194;28;20057;-76
2022/11/23 07:01:28;;;;;;;111.28;106.78;;;7.60;95.00;;;;;;5034891;28;20061;-82
2022/11/23 07:03:54;;;;;;;109.13;104.72;;;7.60;95.00;;;;;;5051233;28;20056;-83
2022/11/23 07:06:20;;;;;;;111.95;107.45;;;7.50;95.00;;;;;;5050709;28;20494;-82
2022/11/23 07:08:46;;;;;;;109.15;104.75;;;7.50;95.00;;;;;;5035060;28;20369;-82
2022/11/23 07:11:11;;;;;;;107.70;103.30;;;7.40;95.00;;;;;;5050645;28;20044;-81
2022/11/23 07:13:37;;;;;;;109.13;104.72;;;7.50;95.00;;;;;;5035224;28;20029;-82
2022/11/23 07:16:03;;;;;;;100.72;96.63;;;7.40;95.10;;;;;;5049405;28;20579;-79
2022/11/23 07:18:29;;;;;;;102.88;98.70;;;7.40;95.10;;;;;;5034273;28;20072;-79
2022/11/23 07:20:58;;;;;;;98.78;94.78;;;7.40;95.10;;;;;;5049556;28;20456;-79
2022/11/23 07:23:25;;;;;;;93.13;89.32;;;7.50;95.10;;;;;;5032603;28;20257;-79
2022/11/23 07:25:50;;;;;;;;;;;7.50;95.10;;;;;;5034276;28;20035;-79
2022/11/23 07:28:16;;;;;;;90.18;86.55;;;7.50;95.10;;;;;;5032229;28;20023;-79
2022/11/23 07:30:42;;;;;;;82.97;79.63;;;7.50;95.10;;;;;;5049166;28;20037;-78
2022/11/23 07:33:10;;;;;;;85.53;82.07;;;7.50;95.10;;;;;;5049313;28;20038;-78
2022/11/23 07:35:38;;;;;;;90.20;85.70;;;7.50;95.10;;;;;;5048979;28;20034;-78
2022/11/23 07:38:06;;;;;;;88.43;84.82;;;7.50;95.10;;;;;;5033857;28;20043;-77
2022/11/23 07:40:33;;;;;;;86.88;83.38;;;7.50;95.10;;;;;;5032667;28;20032;-78
2022/11/23 07:43:00;;;;;;;86.50;83.05;;;7.40;95.10;;;;;;5065148;28;20021;-78
2022/11/23 07:45:27;;;;;;;82.40;79.10;;;7.40;95.10;;;;;;5065560;28;20390;-79
2022/11/23 07:48:01;;;;;;;76.10;73.10;;;7.40;95.00;;;;;;5065606;28;20037;-78
2022/11/23 07:50:28;;;;;;;77.20;74.10;;;7.40;95.10;;;;;;5065537;28;20077;-78
2022/11/23 07:52:53;;;;;;;;;;;7.40;95.30;;;;;;5033874;28;20025;-78
2022/11/23 07:55:19;;;;;;;70.32;67.53;;;7.40;95.10;;;;;;5064986;28;19913;-78
2022/11/23 07:57:45;;;;;;;71.25;68.35;;;7.30;95.00;;;;;;5048196;28;20505;-78
2022/11/23 08:00:11;;;;;;;75.18;72.18;;;7.30;95.00;;;;;;5032997;28;20136;-78
2022/11/23 08:02:37;;;;;;;;;;;7.30;95.00;;;;;;5032754;28;20109;-78
2022/11/23 08:05:03;;;;;;;71.18;68.28;;;7.30;95.00;;;;;;5064767;28;20012;-79
2022/11/23 08:07:28;;;;;;;69.32;66.53;;;7.30;95.00;;;;;;5033695;28;20485;-79
2022/11/23 08:09:54;;;;;;;67.03;64.32;;;7.30;95.00;;;;;;5050164;28;20090;-78
2022/11/23 08:12:20;;;;;;;62.78;60.17;;;7.30;95.00;;;;;;5048329;28;20025;-79
2022/11/23 08:14:46;;;;;;;67.57;64.88;;;7.30;95.10;;;;;;5064641;28;20025;-78
2022/11/23 08:17:11;;;;;;;58.67;56.28;;;7.30;95.10;;;;;;5047931;28;20030;-78
2022/11/23 08:19:37;;;;;;;62.85;60.33;;;7.30;95.30;;;;;;5048049;28;20128;-78
2022/11/23 08:22:03;;;;;;;63.88;61.28;;;7.40;95.10;;;;;;5048022;28;20026;-78
2022/11/23 08:24:29;;;;;;;60.85;58.35;;;7.30;95.10;;;;;;5048360;28;20526;-79
2022/11/23 08:26:55;;;;;;;65.20;62.60;;;7.40;95.10;;;;;;5048075;28;20036;-78
2022/11/23 08:29:21;;;;;;;;;;;7.40;95.10;;;;;;5032025;28;20038;-78
2022/11/23 08:31:46;;;;;;;57.92;55.63;;;7.40;95.10;;;;;;5032483;28;19936;-78
2022/11/23 08:34:13;;;;;;;52.05;50.03;;;7.40;95.10;;;;;;5031018;28;20120;-78
2022/11/23 08:36:38;;;;;;;52.22;50.22;;;7.50;95.10;;;;;;5031193;28;20029;-79
2022/11/23 08:39:04;;;;;;;47.95;46.05;;;7.50;95.10;;;;;;5047644;28;20045;-78
2022/11/23 08:41:30;;;;;;;47.78;45.92;;;7.50;95.20;;;;;;5032105;28;20141;-78
2022/11/23 08:43:56;;;;;;;47.05;45.15;;;7.60;95.20;;;;;;5047224;28;20184;-80
2022/11/23 08:46:21;;;;;;;43.28;41.58;;;7.60;95.20;;;;;;5032060;28;20033;-78
2022/11/23 08:48:47;;;;;;;42.78;41.08;;;7.70;95.20;;;;;;5027383;28;20449;-79
2022/11/23 08:51:13;;;;;;;40.60;39.00;;;7.80;95.20;;;;;;5043904;28;20048;-79
2022/11/23 08:53:39;;;;;;;36.38;34.88;;;7.80;95.20;;;;;;5028408;28;20188;-79
2022/11/23 08:56:06;;;;;;;34.75;33.35;;;7.90;95.30;;;;;;5058848;28;20049;-78
2022/11/23 08:58:32;;;;;;;29.73;28.52;;;8.00;95.50;;;;;;5043272;28;20108;-77
2022/11/23 09:00:58;;;;;;;25.63;24.63;;;8.30;95.80;;;;;;5059907;28;20075;-78
2022/11/23 09:03:24;;;;;;;23.77;22.88;;;8.80;95.90;;;;;;5059893;28;20041;-79
2022/11/23 09:05:50;;;;;;;23.83;22.92;;;9.20;95.90;;;;;;5026618;28;20111;-79
2022/11/23 09:08:16;;;;;;;20.83;20.02;;;9.50;95.80;;;;;;5051459;28;20029;-79
2022/11/23 09:10:41;;;;;;;;;;;9.90;95.70;;;;;;5018116;28;20044;-78
2022/11/23 09:13:07;;;;;;;22.80;21.90;;;10.20;95.60;;;;;;5031886;28;19910;-78
2022/11/23 09:15:33;;;;;;;25.15;24.15;;;10.30;95.20;;;;;;5017372;28;20192;-77
2022/11/23 09:17:59;;;;;;;26.33;25.33;;;10.30;94.90;;;;;;5016642;28;20535;-77
2022/11/23 09:20:25;;;;;;;24.75;23.75;;;10.20;94.80;;;;;;5018582;28;20026;-74
2022/11/23 09:22:52;;;;;;;25.77;24.77;;;10.10;94.90;;;;;;5022466;28;20029;-76
2022/11/23 09:25:18;;;;;;;25.35;24.35;;;10.10;95.30;;;;;;5026375;28;20033;-77
2022/11/23 09:27:44;;;;;;;26.75;25.75;;;10.20;95.30;;;;;;5027443;28;20028;-77
2022/11/23 09:30:10;;;;;;;26.23;25.23;;;10.20;95.20;;;;;;5043473;28;20513;-76
2022/11/23 09:32:36;;;;;;;24.00;23.10;;;10.20;95.10;;;;;;5025537;28;20079;-76
2022/11/23 09:35:02;;;;;;;20.75;19.95;;;10.30;95.40;;;;;;5027052;28;20034;-77
2022/11/23 09:37:28;;;;;;;18.60;17.80;;;10.70;95.80;;;;;;5026764;28;20022;-77
2022/11/23 09:39:54;;;;;;;17.83;17.13;;;11.20;96.00;;;;;;5026982;28;20373;-77
2022/11/23 09:42:50;;;;;;;14.98;14.38;;;11.60;95.90;;;;;;5028153;28;20481;-77
2022/11/23 09:45:46;;;;;;;12.55;11.95;;;12.00;95.70;;;;;;5024594;28;20037;-77
2022/11/23 09:48:29;;;;;;;11.43;10.93;;;12.40;95.60;;;;;;5026744;28;20020;-77
2022/11/23 09:51:15;;;;;;;11.02;10.52;;;12.60;95.40;;;;;;5026661;28;20108;-77
2022/11/23 09:54:07;;;;;;;12.18;11.68;;;12.90;95.40;;;;;;5024081;28;20088;-77
2022/11/23 09:56:35;;;;;;;7.75;7.35;;;13.00;95.40;;;;;;5002395;28;20456;-77
2022/11/23 09:59:12;;;;;;;7.22;6.82;;;13.30;95.50;;;;;;5025236;28;20032;-76
2022/11/23 10:01:39;;;;;;;5.85;5.55;;;13.50;95.40;;;;;;5025257;28;20018;-76
2022/11/23 10:04:08;;;;;;;6.03;5.72;;;13.60;95.30;;;;;;5026685;28;20119;-76
2022/11/23 10:06:39;;;;;;;5.45;5.15;;;13.70;95.30;;;;;;5027267;28;20428;-76
2022/11/23 10:09:10;;;;;;;4.90;4.60;;;13.80;95.30;;;;;;5028313;28;20029;-76
2022/11/23 10:12:15;;;;;;;5.05;4.75;;;14.00;95.40;;;;;;5026433;28;20030;-76
2022/11/23 10:15:25;;;;;;;3.10;2.90;;;14.20;95.60;;;;;;5024146;28;20075;-76
2022/11/23 10:18:29;;;;;;;2.42;2.22;;;14.60;95.60;;;;;;5019554;28;20045;-76
2022/11/23 10:21:32;;;;;;;2.95;2.75;;;14.70;95.40;;;;;;5026817;28;20018;-75
2022/11/23 10:24:06;;;;;;;1.75;1.65;;;14.90;95.40;;;;;;5022493;28;20435;-76
2022/11/23 10:26:37;;;;;;;1.55;1.45;;;15.00;95.40;;;;;;5027601;28;20087;-75
2022/11/23 10:29:14;;;;;;;1.10;1.10;;;15.20;95.40;;;;;;5026157;28;20025;-76
2022/11/23 10:31:46;;;;;;;0.90;0.90;;;15.40;95.50;;;;;;5025536;28;20037;-76
2022/11/23 10:34:45;;;;;;;0.63;0.63;;;15.70;95.70;;;;;;5027257;28;20092;-76
2022/11/23 10:37:12;;;;;;;0.45;0.45;;;15.90;95.50;;;;;;5022392;28;20029;-77
2022/11/23 10:39:38;;;;;;;0.30;0.30;;;16.00;95.20;;;;;;5027046;28;20041;-69
2022/11/23 10:42:21;;;;;;;0.32;0.32;;;16.10;95.60;;;;;;5027892;28;20030;-76
2022/11/23 10:44:49;;;;;;;0.30;0.30;;;16.40;95.60;;;;;;5027186;28;20022;-77
2022/11/23 10:47:57;;;;;;;0.20;0.20;;;16.60;95.60;;;;;;5028106;28;20087;-77
2022/11/23 10:50:32;;;;;;;0.20;0.20;;;16.90;95.50;;;;;;4970325;28;20125;-77
2022/11/23 10:53:12;;;;;;;0.10;0.10;;;17.00;95.40;;;;;;4986514;28;20048;-77
2022/11/23 10:55:53;;;;;;;0.00;0.00;;;17.20;95.30;;;;;;5013774;28;20079;-76
2022/11/23 10:58:40;;;;;;;0.10;0.10;;;17.20;95.30;;;;;;5028975;28;20060;-76
2022/11/23 11:01:12;;;;;;;0.10;0.10;;;17.30;95.30;;;;;;5027006;28;20032;-71
2022/11/23 11:03:38;;;;;;;0.05;0.05;;;17.30;95.20;;;;;;5027659;28;20133;-74
2022/11/23 11:06:05;;;;;;;0.25;0.25;;;17.20;95.20;;;;;;5027585;28;20030;-74
2022/11/23 11:08:36;;;;;;;0.00;0.00;;;17.30;95.40;;;;;;5027769;28;20052;-76
2022/11/23 11:11:03;;;;;;;0.00;0.00;;;17.40;95.50;;;;;;5027645;28;20627;-75
2022/11/23 11:13:32;;;;;;;0.00;0.00;;;17.30;95.20;;;;;;5026788;28;20521;-75
2022/11/23 11:16:03;;;;;;;0.00;0.00;;;17.30;95.20;;;;;;5028086;28;20381;-77
2022/11/23 11:18:37;;;;;;;0.00;0.00;;;17.20;95.40;;;;;;5027149;28;20030;-74
2022/11/23 11:21:33;;;;;;;0.00;0.00;;;17.30;95.60;;;;;;5031245;28;20025;-72
2022/11/23 11:24:12;;;;;;;0.00;0.00;;;17.30;95.40;;;;;;5030860;28;20021;-75
2022/11/23 11:26:51;;;;;;;0.00;0.00;;;17.20;95.30;;;;;;5030956;28;20030;-72
2022/11/23 11:29:34;;;;;;;0.00;0.00;;;17.10;95.30;;;;;;5031468;28;20458;-75
2022/11/23 11:32:19;;;;;;;0.00;0.00;;;17.00;95.50;;;;;;5031087;28;20021;-75
2022/11/23 11:34:50;;;;;;;0.00;0.00;;;17.10;95.70;;;;;;5030570;28;20029;-74
2022/11/23 11:37:34;;;;;;;0.00;0.00;;;17.20;95.50;;;;;;5030573;28;20075;-77
2022/11/23 11:40:05;;;;;;;0.00;0.00;;;16.70;94.80;;;;;;5030571;28;20128;-76
2022/11/23 11:42:40;;;;;;;0.00;0.00;;;16.10;94.40;;;;;;5030154;28;20126;-76
2022/11/23 11:45:15;;;;;;;0.00;0.00;;;15.30;94.10;;;;;;5029974;28;20029;-77
2022/11/23 11:47:52;;;;;;;0.00;0.00;;;14.40;94.10;;;;;;5030311;28;20040;-75
2022/11/23 11:50:25;;;;;;;0.00;0.00;;;13.60;94.50;;;;;;5031000;28;20105;-74
2022/11/23 11:52:58;;;;;;;0.00;0.00;;;13.20;95.20;;;;;;5030587;28;20461;-73
2022/11/23 11:55:46;;;;;;;0.10;0.10;;;13.10;95.70;;;;;;5031635;28;20030;-73
2022/11/23 11:58:15;;;;;;;0.00;0.00;;;13.30;96.30;;;;;;5030712;28;20025;-74
2022/11/23 12:00:41;;;;;;;0.00;0.00;;;13.70;96.40;;;;;;5029036;28;20052;-75
2022/11/23 12:03:26;;;;;;;;;;;14.10;96.60;;;;;;5029956;28;20022;-75
2022/11/23 12:05:54;;;;;;;0.00;0.00;;;14.50;96.50;;;;;;5061642;28;20007;-74
2022/11/23 12:09:05;;;;;;;0.00;0.00;;;14.90;96.50;;;;;;5030737;28;20075;-77
2022/11/23 12:11:31;;;;;;;0.00;0.00;;;15.30;96.20;;;;;;5029176;28;20038;-77
2022/11/23 12:14:03;;;;;;;0.00;0.00;;;15.40;96.00;;;;;;5029775;28;20390;-77
2022/11/23 12:17:05;;;;;;;0.00;0.00;;;15.40;95.90;;;;;;5030883;28;20041;-76
2022/11/23 12:19:38;;;;;;;0.00;0.00;;;15.40;95.90;;;;;;5028985;28;20587;-78
2022/11/23 12:22:31;;;;;;;0.00;0.00;;;15.30;95.70;;;;;;5022827;28;20018;-76
2022/11/23 12:25:16;;;;;;;0.00;0.00;;;15.10;95.60;;;;;;5028253;28;20021;-77
2022/11/23 12:28:04;;;;;;;0.00;0.00;;;14.80;95.00;;;;;;5017778;28;20108;-76
2022/11/23 12:31:16;;;;;;;0.00;0.00;;;14.30;94.80;;;;;;5029568;28;20026;-77
2022/11/23 12:33:45;;;;;;;0.00;0.00;;;13.70;95.00;;;;;;5027144;28;20665;-77
2022/11/23 12:36:30;;;;;;;0.00;0.00;;;13.30;94.90;;;;;;5029845;28;20382;-78
2022/11/23 12:39:04;;;;;;;0.00;0.00;;;12.90;94.90;;;;;;5030035;28;20061;-77
2022/11/23 12:41:57;;;;;;;0.00;0.00;;;12.60;95.00;;;;;;5022048;28;20068;-79
2022/11/23 12:44:40;;;;;;;0.00;0.00;;;12.30;95.20;;;;;;5029415;28;20025;-78
2022/11/23 12:47:46;;;;;;;0.00;0.00;;;12.20;95.30;;;;;;5029950;28;20048;-77